sensor_id;sensor_type;location;lat;lon;timestamp;pressure;altitude;pressure_sealevel;temperature;humidity
11124;BME280;5616;42.692;23.312;2023-03-16T00:01:42;94305.88;;;4.43;91.00
11124;BME280;5616;42.692;23.312;2023-03-16T00:04:09;94306.50;;;4.53;89.99
11124;BME280;5616;42.692;23.312;2023-03-16T00:06:35;94302.66;;;4.65;89.63
11124;BME280;5616;42.692;23.312;2023-03-16T00:09:02;94283.69;;;4.44;89.75
11124;BME280;5616;42.692;23.312;2023-03-16T00:11:30;94307.78;;;4.57;88.59
11124;BME280;5616;42.692;23.312;2023-03-16T00:13:57;94306.38;;;4.47;90.24
11124;BME280;5616;42.692;23.312;2023-03-16T00:16:24;94315.59;;;4.64;89.97
11124;BME280;5616;42.692;23.312;2023-03-16T00:18:51;94316.91;;;4.52;90.86
11124;BME280;5616;42.692;23.312;2023-03-16T00:21:18;94311.94;;;4.58;90.01
11124;BME280;5616;42.692;23.312;2023-03-16T00:23:45;94317.38;;;4.63;90.20
11124;BME280;5616;42.692;23.312;2023-03-16T00:26:12;94315.56;;;4.72;89.87
11124;BME280;5616;42.692;23.312;2023-03-16T00:28:40;94315.09;;;4.76;89.70
11124;BME280;5616;42.692;23.312;2023-03-16T00:31:09;94306.31;;;4.71;89.39
11124;BME280;5616;42.692;23.312;2023-03-16T00:33:37;94320.56;;;4.57;88.96
11124;BME280;5616;42.692;23.312;2023-03-16T00:36:06;94315.44;;;4.57;88.72
11124;BME280;5616;42.692;23.312;2023-03-16T00:38:35;94326.63;;;4.64;89.29
11124;BME280;5616;42.692;23.312;2023-03-16T00:41:03;94329.16;;;4.72;90.16
11124;BME280;5616;42.692;23.312;2023-03-16T00:43:31;94334.88;;;4.82;89.11
11124;BME280;5616;42.692;23.312;2023-03-16T00:46:07;94331.22;;;4.69;89.96
11124;BME280;5616;42.692;23.312;2023-03-16T00:48:35;94332.25;;;4.44;90.61
11124;BME280;5616;42.692;23.312;2023-03-16T00:51:02;94332.13;;;4.29;91.52
11124;BME280;5616;42.692;23.312;2023-03-16T00:53:31;94331.31;;;4.28;91.73
11124;BME280;5616;42.692;23.312;2023-03-16T00:55:59;94325.22;;;4.38;90.72
11124;BME280;5616;42.692;23.312;2023-03-16T00:58:27;94327.63;;;4.15;91.93
11124;BME280;5616;42.692;23.312;2023-03-16T01:00:54;94328.13;;;4.35;91.35
11124;BME280;5616;42.692;23.312;2023-03-16T01:03:23;94324.13;;;3.92;91.66
11124;BME280;5616;42.692;23.312;2023-03-16T01:05:50;94334.34;;;4.00;92.40
11124;BME280;5616;42.692;23.312;2023-03-16T01:08:16;94334.50;;;4.06;91.37
11124;BME280;5616;42.692;23.312;2023-03-16T01:10:44;94329.69;;;3.95;92.78
11124;BME280;5616;42.692;23.312;2023-03-16T01:13:11;94330.50;;;4.04;91.14
11124;BME280;5616;42.692;23.312;2023-03-16T01:15:38;94332.09;;;3.97;93.61
11124;BME280;5616;42.692;23.312;2023-03-16T01:18:05;94342.78;;;3.84;92.87
11124;BME280;5616;42.692;23.312;2023-03-16T01:20:33;94327.16;;;4.03;92.08
11124;BME280;5616;42.692;23.312;2023-03-16T01:23:00;94332.72;;;3.91;92.09
11124;BME280;5616;42.692;23.312;2023-03-16T01:25:27;94338.34;;;3.94;91.23
11124;BME280;5616;42.692;23.312;2023-03-16T01:27:54;94336.91;;;4.00;89.72
11124;BME280;5616;42.692;23.312;2023-03-16T01:30:21;94339.16;;;4.03;89.33
11124;BME280;5616;42.692;23.312;2023-03-16T01:32:48;94342.97;;;4.07;89.34
11124;BME280;5616;42.692;23.312;2023-03-16T01:35:15;94343.75;;;4.07;88.69
11124;BME280;5616;42.692;23.312;2023-03-16T01:37:43;94338.16;;;4.04;87.86
11124;BME280;5616;42.692;23.312;2023-03-16T01:40:17;94354.59;;;3.85;87.52
11124;BME280;5616;42.692;23.312;2023-03-16T01:42:45;94348.50;;;3.70;88.68
11124;BME280;5616;42.692;23.312;2023-03-16T01:48:17;94356.81;;;3.80;90.36
11124;BME280;5616;42.692;23.312;2023-03-16T01:50:44;94352.50;;;3.81;89.22
11124;BME280;5616;42.692;23.312;2023-03-16T01:53:13;94353.13;;;3.66;88.33
11124;BME280;5616;42.692;23.312;2023-03-16T01:55:40;94368.59;;;3.65;88.77
11124;BME280;5616;42.692;23.312;2023-03-16T01:58:08;94360.00;;;3.66;89.77
11124;BME280;5616;42.692;23.312;2023-03-16T02:00:35;94363.00;;;3.61;89.70
11124;BME280;5616;42.692;23.312;2023-03-16T02:03:14;94360.78;;;3.66;89.67
11124;BME280;5616;42.692;23.312;2023-03-16T02:05:52;94373.22;;;3.69;90.47
11124;BME280;5616;42.692;23.312;2023-03-16T02:08:24;94374.34;;;3.67;89.67
11124;BME280;5616;42.692;23.312;2023-03-16T02:10:53;94376.41;;;3.55;90.84
11124;BME280;5616;42.692;23.312;2023-03-16T02:13:25;94376.88;;;3.59;89.91
11124;BME280;5616;42.692;23.312;2023-03-16T02:15:54;94385.63;;;3.48;91.00
11124;BME280;5616;42.692;23.312;2023-03-16T02:18:21;94386.25;;;3.50;90.59
11124;BME280;5616;42.692;23.312;2023-03-16T02:20:51;94385.00;;;3.54;91.02
11124;BME280;5616;42.692;23.312;2023-03-16T02:23:24;94386.28;;;3.58;90.00
11124;BME280;5616;42.692;23.312;2023-03-16T02:25:56;94382.16;;;3.65;92.24
11124;BME280;5616;42.692;23.312;2023-03-16T02:28:32;94391.63;;;3.81;91.43
11124;BME280;5616;42.692;23.312;2023-03-16T02:31:04;94395.63;;;3.84;91.59
11124;BME280;5616;42.692;23.312;2023-03-16T02:33:32;94396.88;;;3.80;91.22
11124;BME280;5616;42.692;23.312;2023-03-16T02:36:00;94398.28;;;3.74;90.47
11124;BME280;5616;42.692;23.312;2023-03-16T02:38:27;94403.56;;;3.72;90.71
11124;BME280;5616;42.692;23.312;2023-03-16T02:40:57;94400.38;;;3.70;91.66
11124;BME280;5616;42.692;23.312;2023-03-16T02:43:28;94408.00;;;3.62;90.85
11124;BME280;5616;42.692;23.312;2023-03-16T02:46:10;94409.91;;;3.60;91.56
11124;BME280;5616;42.692;23.312;2023-03-16T02:48:42;94402.22;;;3.52;92.28
11124;BME280;5616;42.692;23.312;2023-03-16T02:51:09;94408.25;;;3.43;93.15
11124;BME280;5616;42.692;23.312;2023-03-16T02:53:37;94407.94;;;3.46;92.72
11124;BME280;5616;42.692;23.312;2023-03-16T02:56:05;94411.44;;;3.45;93.72
11124;BME280;5616;42.692;23.312;2023-03-16T02:58:34;94411.00;;;3.50;93.90
11124;BME280;5616;42.692;23.312;2023-03-16T03:01:04;94407.63;;;3.49;94.38
11124;BME280;5616;42.692;23.312;2023-03-16T03:03:34;94413.22;;;3.45;95.02
11124;BME280;5616;42.692;23.312;2023-03-16T03:06:01;94409.03;;;3.36;93.79
11124;BME280;5616;42.692;23.312;2023-03-16T03:08:33;94419.44;;;3.42;94.35
11124;BME280;5616;42.692;23.312;2023-03-16T03:11:00;94416.88;;;3.42;93.77
11124;BME280;5616;42.692;23.312;2023-03-16T03:13:27;94428.03;;;3.41;93.15
11124;BME280;5616;42.692;23.312;2023-03-16T03:15:56;94441.41;;;3.43;93.71
11124;BME280;5616;42.692;23.312;2023-03-16T03:18:25;94433.91;;;3.34;92.91
11124;BME280;5616;42.692;23.312;2023-03-16T03:20:53;94433.66;;;3.19;93.99
11124;BME280;5616;42.692;23.312;2023-03-16T03:23:20;94443.25;;;3.25;92.37
11124;BME280;5616;42.692;23.312;2023-03-16T03:25:48;94443.25;;;3.25;93.66
11124;BME280;5616;42.692;23.312;2023-03-16T03:28:16;94441.47;;;3.18;93.43
11124;BME280;5616;42.692;23.312;2023-03-16T03:30:43;94442.69;;;3.14;92.40
11124;BME280;5616;42.692;23.312;2023-03-16T03:33:10;94448.22;;;3.01;92.94
11124;BME280;5616;42.692;23.312;2023-03-16T03:35:37;94441.78;;;2.89;92.78
11124;BME280;5616;42.692;23.312;2023-03-16T03:38:05;94454.63;;;2.62;93.66
11124;BME280;5616;42.692;23.312;2023-03-16T03:40:33;94446.69;;;2.65;94.86
11124;BME280;5616;42.692;23.312;2023-03-16T03:43:02;94449.31;;;2.73;95.22
11124;BME280;5616;42.692;23.312;2023-03-16T03:45:31;94462.00;;;2.65;95.29
11124;BME280;5616;42.692;23.312;2023-03-16T03:47:58;94452.59;;;2.65;95.29
11124;BME280;5616;42.692;23.312;2023-03-16T03:50:24;94462.88;;;2.73;94.93
11124;BME280;5616;42.692;23.312;2023-03-16T03:53:25;94471.59;;;2.71;94.96
11124;BME280;5616;42.692;23.312;2023-03-16T03:56:09;94475.44;;;2.75;96.68
11124;BME280;5616;42.692;23.312;2023-03-16T03:58:36;94480.50;;;2.49;96.42
11124;BME280;5616;42.692;23.312;2023-03-16T04:01:04;94479.47;;;2.60;96.68
11124;BME280;5616;42.692;23.312;2023-03-16T04:03:32;94475.59;;;2.56;95.79
11124;BME280;5616;42.692;23.312;2023-03-16T04:05:59;94484.06;;;2.74;95.48
11124;BME280;5616;42.692;23.312;2023-03-16T04:08:28;94489.63;;;2.77;94.95
11124;BME280;5616;42.692;23.312;2023-03-16T04:10:55;94486.88;;;2.88;94.70
11124;BME280;5616;42.692;23.312;2023-03-16T04:13:22;94491.78;;;2.82;94.86
11124;BME280;5616;42.692;23.312;2023-03-16T04:15:55;94487.97;;;2.86;95.21
11124;BME280;5616;42.692;23.312;2023-03-16T04:18:25;94480.38;;;2.94;95.20
11124;BME280;5616;42.692;23.312;2023-03-16T04:20:52;94485.81;;;2.99;93.99
11124;BME280;5616;42.692;23.312;2023-03-16T04:23:21;94489.00;;;3.01;93.64
11124;BME280;5616;42.692;23.312;2023-03-16T04:25:51;94487.16;;;2.85;94.54
11124;BME280;5616;42.692;23.312;2023-03-16T04:28:20;94497.69;;;2.90;93.52
11124;BME280;5616;42.692;23.312;2023-03-16T04:30:50;94501.06;;;2.91;93.89
11124;BME280;5616;42.692;23.312;2023-03-16T04:33:25;94503.94;;;2.70;94.00
11124;BME280;5616;42.692;23.312;2023-03-16T04:35:52;94505.44;;;2.81;95.50
11124;BME280;5616;42.692;23.312;2023-03-16T04:38:20;94512.44;;;2.61;95.79
11124;BME280;5616;42.692;23.312;2023-03-16T04:40:54;94505.59;;;2.62;97.00
11124;BME280;5616;42.692;23.312;2023-03-16T04:43:24;94510.03;;;2.77;96.29
11124;BME280;5616;42.692;23.312;2023-03-16T04:45:55;94518.28;;;2.54;95.28
11124;BME280;5616;42.692;23.312;2023-03-16T04:48:25;94521.41;;;2.65;95.93
11124;BME280;5616;42.692;23.312;2023-03-16T04:50:53;94526.41;;;2.75;95.67
11124;BME280;5616;42.692;23.312;2023-03-16T04:53:20;94517.56;;;2.79;94.78
11124;BME280;5616;42.692;23.312;2023-03-16T04:55:54;94535.31;;;2.71;93.67
11124;BME280;5616;42.692;23.312;2023-03-16T04:58:21;94527.06;;;2.77;94.48
11124;BME280;5616;42.692;23.312;2023-03-16T05:00:50;94539.31;;;2.91;94.67
11124;BME280;5616;42.692;23.312;2023-03-16T05:03:24;94543.47;;;2.92;93.97
11124;BME280;5616;42.692;23.312;2023-03-16T05:05:51;94544.25;;;2.92;93.68
11124;BME280;5616;42.692;23.312;2023-03-16T05:08:18;94546.84;;;3.00;90.62
11124;BME280;5616;42.692;23.312;2023-03-16T05:10:47;94551.59;;;2.95;91.90
11124;BME280;5616;42.692;23.312;2023-03-16T05:13:16;94550.56;;;3.06;90.98
11124;BME280;5616;42.692;23.312;2023-03-16T05:15:46;94553.47;;;3.11;90.79
11124;BME280;5616;42.692;23.312;2023-03-16T05:18:18;94551.09;;;3.09;90.63
11124;BME280;5616;42.692;23.312;2023-03-16T05:20:45;94552.88;;;3.17;90.85
11124;BME280;5616;42.692;23.312;2023-03-16T05:23:14;94557.06;;;3.18;89.22
11124;BME280;5616;42.692;23.312;2023-03-16T05:25:45;94553.47;;;3.11;90.22
11124;BME280;5616;42.692;23.312;2023-03-16T05:28:13;94556.75;;;3.03;90.09
11124;BME280;5616;42.692;23.312;2023-03-16T05:30:51;94568.41;;;3.06;88.90
11124;BME280;5616;42.692;23.312;2023-03-16T05:33:22;94575.72;;;3.01;89.48
11124;BME280;5616;42.692;23.312;2023-03-16T05:35:55;94583.06;;;3.04;89.34
11124;BME280;5616;42.692;23.312;2023-03-16T05:38:24;94578.88;;;2.95;89.98
11124;BME280;5616;42.692;23.312;2023-03-16T05:40:52;94589.19;;;2.93;89.94
11124;BME280;5616;42.692;23.312;2023-03-16T05:43:36;94579.88;;;3.02;91.21
11124;BME280;5616;42.692;23.312;2023-03-16T05:46:05;94590.59;;;3.05;89.78
11124;BME280;5616;42.692;23.312;2023-03-16T05:48:32;94583.88;;;3.04;91.33
11124;BME280;5616;42.692;23.312;2023-03-16T05:51:04;94593.56;;;3.19;91.15
11124;BME280;5616;42.692;23.312;2023-03-16T05:53:32;94597.41;;;3.23;90.02
11124;BME280;5616;42.692;23.312;2023-03-16T05:56:09;94600.91;;;3.22;90.16
11124;BME280;5616;42.692;23.312;2023-03-16T05:58:40;94597.69;;;3.20;90.21
11124;BME280;5616;42.692;23.312;2023-03-16T06:01:09;94607.84;;;2.94;91.40
11124;BME280;5616;42.692;23.312;2023-03-16T06:03:39;94599.97;;;2.87;91.95
11124;BME280;5616;42.692;23.312;2023-03-16T06:06:09;94608.06;;;3.00;92.02
11124;BME280;5616;42.692;23.312;2023-03-16T06:08:47;94611.41;;;3.01;91.63
11124;BME280;5616;42.692;23.312;2023-03-16T06:11:15;94608.81;;;3.11;90.40
11124;BME280;5616;42.692;23.312;2023-03-16T06:13:44;94609.75;;;3.09;91.04
11124;BME280;5616;42.692;23.312;2023-03-16T06:16:12;94617.66;;;3.24;91.75
11124;BME280;5616;42.692;23.312;2023-03-16T06:18:41;94619.91;;;3.27;90.38
11124;BME280;5616;42.692;23.312;2023-03-16T06:21:09;94628.84;;;3.23;90.29
11124;BME280;5616;42.692;23.312;2023-03-16T06:23:37;94627.56;;;3.45;88.55
11124;BME280;5616;42.692;23.312;2023-03-16T06:26:05;94632.56;;;3.54;87.70
11124;BME280;5616;42.692;23.312;2023-03-16T06:28:34;94631.63;;;3.55;87.99
11124;BME280;5616;42.692;23.312;2023-03-16T06:31:02;94636.03;;;3.71;89.66
11124;BME280;5616;42.692;23.312;2023-03-16T06:33:34;94640.41;;;3.79;86.67
11124;BME280;5616;42.692;23.312;2023-03-16T06:36:01;94644.88;;;3.85;88.02
11124;BME280;5616;42.692;23.312;2023-03-16T06:38:36;94648.66;;;3.72;86.08
11124;BME280;5616;42.692;23.312;2023-03-16T06:41:08;94650.41;;;3.72;85.50
11124;BME280;5616;42.692;23.312;2023-03-16T06:43:35;94662.88;;;3.75;85.02
11124;BME280;5616;42.692;23.312;2023-03-16T06:46:02;94652.81;;;3.74;86.41
11124;BME280;5616;42.692;23.312;2023-03-16T06:48:29;94662.81;;;3.67;86.41
11124;BME280;5616;42.692;23.312;2023-03-16T06:50:58;94662.56;;;3.78;85.82
11124;BME280;5616;42.692;23.312;2023-03-16T06:53:26;94671.63;;;3.72;83.23
11124;BME280;5616;42.692;23.312;2023-03-16T06:55:54;94670.34;;;3.68;84.10
11124;BME280;5616;42.692;23.312;2023-03-16T06:58:22;94679.38;;;3.45;88.16
11124;BME280;5616;42.692;23.312;2023-03-16T07:00:49;94684.06;;;3.50;88.43
11124;BME280;5616;42.692;23.312;2023-03-16T07:03:16;94677.56;;;3.55;86.36
11124;BME280;5616;42.692;23.312;2023-03-16T07:05:49;94677.56;;;3.55;87.75
11124;BME280;5616;42.692;23.312;2023-03-16T07:08:17;94689.19;;;3.76;87.53
11124;BME280;5616;42.692;23.312;2023-03-16T07:10:44;94695.00;;;3.86;86.42
11124;BME280;5616;42.692;23.312;2023-03-16T07:13:11;94696.53;;;3.96;86.25
11124;BME280;5616;42.692;23.312;2023-03-16T07:15:38;94691.56;;;3.95;86.17
11124;BME280;5616;42.692;23.312;2023-03-16T07:18:05;94693.56;;;3.83;87.22
11124;BME280;5616;42.692;23.312;2023-03-16T07:20:32;94699.78;;;3.81;88.00
11124;BME280;5616;42.692;23.312;2023-03-16T07:23:03;94695.06;;;3.68;88.38
11124;BME280;5616;42.692;23.312;2023-03-16T07:25:31;94694.72;;;3.89;88.33
11124;BME280;5616;42.692;23.312;2023-03-16T07:27:59;94715.31;;;3.69;88.78
11124;BME280;5616;42.692;23.312;2023-03-16T07:30:31;94708.69;;;3.77;87.55
11124;BME280;5616;42.692;23.312;2023-03-16T07:32:58;94709.94;;;3.55;89.15
11124;BME280;5616;42.692;23.312;2023-03-16T07:35:26;94713.97;;;3.57;89.79
11124;BME280;5616;42.692;23.312;2023-03-16T07:37:54;94717.56;;;3.72;90.19
11124;BME280;5616;42.692;23.312;2023-03-16T07:40:23;94708.59;;;3.86;87.45
11124;BME280;5616;42.692;23.312;2023-03-16T07:42:52;94719.97;;;3.92;86.17
11124;BME280;5616;42.692;23.312;2023-03-16T07:45:27;94718.22;;;3.92;85.09
11124;BME280;5616;42.692;23.312;2023-03-16T07:47:55;94720.31;;;3.97;85.69
11124;BME280;5616;42.692;23.312;2023-03-16T07:50:39;94723.38;;;4.00;86.56
11124;BME280;5616;42.692;23.312;2023-03-16T07:53:06;94718.97;;;4.10;86.59
11124;BME280;5616;42.692;23.312;2023-03-16T07:55:36;94726.97;;;4.15;85.81
11124;BME280;5616;42.692;23.312;2023-03-16T07:58:05;94731.34;;;4.23;83.03
11124;BME280;5616;42.692;23.312;2023-03-16T08:00:37;94734.41;;;4.26;83.32
11124;BME280;5616;42.692;23.312;2023-03-16T08:03:04;94733.72;;;4.24;84.09
11124;BME280;5616;42.692;23.312;2023-03-16T08:05:31;94734.47;;;4.43;85.62
11124;BME280;5616;42.692;23.312;2023-03-16T08:08:00;94726.38;;;4.47;82.39
11124;BME280;5616;42.692;23.312;2023-03-16T08:10:28;94732.16;;;4.57;84.85
11124;BME280;5616;42.692;23.312;2023-03-16T08:13:06;94729.34;;;4.68;83.16
11124;BME280;5616;42.692;23.312;2023-03-16T08:15:34;94733.00;;;4.66;81.30
11124;BME280;5616;42.692;23.312;2023-03-16T08:18:14;94739.88;;;4.65;81.99
11124;BME280;5616;42.692;23.312;2023-03-16T08:20:41;94743.88;;;4.68;81.14
11124;BME280;5616;42.692;23.312;2023-03-16T08:23:09;94737.41;;;4.56;82.63
11124;BME280;5616;42.692;23.312;2023-03-16T08:25:39;94743.06;;;4.67;82.58
11124;BME280;5616;42.692;23.312;2023-03-16T08:28:14;94744.94;;;4.91;81.88
11124;BME280;5616;42.692;23.312;2023-03-16T08:30:46;94756.81;;;5.00;80.19
11124;BME280;5616;42.692;23.312;2023-03-16T08:33:33;94754.00;;;4.85;82.19
11124;BME280;5616;42.692;23.312;2023-03-16T08:36:01;94756.91;;;4.90;80.81
11124;BME280;5616;42.692;23.312;2023-03-16T08:38:31;94748.66;;;5.05;80.91
11124;BME280;5616;42.692;23.312;2023-03-16T08:41:02;94747.69;;;4.98;82.07
11124;BME280;5616;42.692;23.312;2023-03-16T08:43:31;94750.84;;;4.91;82.05
11124;BME280;5616;42.692;23.312;2023-03-16T08:45:58;94758.69;;;4.98;79.29
11124;BME280;5616;42.692;23.312;2023-03-16T08:48:36;94759.94;;;4.86;81.31
11124;BME280;5616;42.692;23.312;2023-03-16T08:51:05;94756.88;;;4.82;82.08
11124;BME280;5616;42.692;23.312;2023-03-16T08:53:32;94761.56;;;4.87;81.80
11124;BME280;5616;42.692;23.312;2023-03-16T08:56:03;94764.66;;;5.07;81.56
11124;BME280;5616;42.692;23.312;2023-03-16T08:58:32;94771.00;;;4.94;80.02
11124;BME280;5616;42.692;23.312;2023-03-16T09:01:04;94764.88;;;4.87;80.68
11124;BME280;5616;42.692;23.312;2023-03-16T09:03:31;94769.38;;;4.85;77.04
11124;BME280;5616;42.692;23.312;2023-03-16T09:06:00;94760.66;;;4.70;76.22
11124;BME280;5616;42.692;23.312;2023-03-16T09:08:27;94767.88;;;4.75;79.12
11124;BME280;5616;42.692;23.312;2023-03-16T09:10:58;94766.47;;;4.80;77.78
11124;BME280;5616;42.692;23.312;2023-03-16T09:13:26;94769.69;;;4.90;78.28
11124;BME280;5616;42.692;23.312;2023-03-16T09:15:55;94778.00;;;4.92;76.11
11124;BME280;5616;42.692;23.312;2023-03-16T09:18:22;94781.59;;;5.00;76.84
11124;BME280;5616;42.692;23.312;2023-03-16T09:20:51;94782.06;;;5.03;76.13
11124;BME280;5616;42.692;23.312;2023-03-16T09:23:18;94789.91;;;5.02;76.70
11124;BME280;5616;42.692;23.312;2023-03-16T09:25:45;94790.72;;;5.02;77.10
11124;BME280;5616;42.692;23.312;2023-03-16T09:28:12;94781.63;;;5.08;76.11
11124;BME280;5616;42.692;23.312;2023-03-16T09:30:40;94782.69;;;4.97;77.45
11124;BME280;5616;42.692;23.312;2023-03-16T09:33:08;94783.97;;;5.01;75.54
11124;BME280;5616;42.692;23.312;2023-03-16T09:35:35;94777.09;;;5.02;74.90
11124;BME280;5616;42.692;23.312;2023-03-16T09:38:02;94786.63;;;4.83;77.98
11124;BME280;5616;42.692;23.312;2023-03-16T09:40:29;94776.69;;;4.80;76.99
11124;BME280;5616;42.692;23.312;2023-03-16T09:45:57;94785.84;;;4.91;75.65
11124;BME280;5616;42.692;23.312;2023-03-16T09:48:27;94788.44;;;4.99;76.25
11124;BME280;5616;42.692;23.312;2023-03-16T09:50:57;94795.47;;;4.97;79.58
11124;BME280;5616;42.692;23.312;2023-03-16T09:53:27;94789.22;;;4.91;77.31
11124;BME280;5616;42.692;23.312;2023-03-16T09:55:59;94790.50;;;4.95;77.29
11124;BME280;5616;42.692;23.312;2023-03-16T09:58:28;94792.41;;;4.93;79.79
11124;BME280;5616;42.692;23.312;2023-03-16T10:01:04;94805.13;;;4.77;80.84
11124;BME280;5616;42.692;23.312;2023-03-16T10:03:49;94797.28;;;4.71;80.58
11124;BME280;5616;42.692;23.312;2023-03-16T10:06:21;94798.47;;;4.84;79.92
11124;BME280;5616;42.692;23.312;2023-03-16T10:08:52;94790.34;;;4.89;80.29
11124;BME280;5616;42.692;23.312;2023-03-16T10:11:29;94804.94;;;5.05;79.56
11124;BME280;5616;42.692;23.312;2023-03-16T10:14:02;94790.59;;;5.20;79.58
11124;BME280;5616;42.692;23.312;2023-03-16T10:16:38;94799.88;;;5.13;79.52
11124;BME280;5616;42.692;23.312;2023-03-16T10:19:12;94797.06;;;5.32;80.32
11124;BME280;5616;42.692;23.312;2023-03-16T10:21:41;94793.06;;;5.45;78.95
11124;BME280;5616;42.692;23.312;2023-03-16T10:24:18;94793.72;;;5.39;76.98
11124;BME280;5616;42.692;23.312;2023-03-16T10:26:53;94799.84;;;5.63;75.54
11124;BME280;5616;42.692;23.312;2023-03-16T10:29:25;94798.44;;;5.76;74.89
11124;BME280;5616;42.692;23.312;2023-03-16T10:31:54;94787.69;;;5.81;75.03
11124;BME280;5616;42.692;23.312;2023-03-16T10:34:26;94790.75;;;5.76;75.80
11124;BME280;5616;42.692;23.312;2023-03-16T10:36:53;94795.53;;;5.71;74.32
11124;BME280;5616;42.692;23.312;2023-03-16T10:39:20;94793.63;;;5.73;74.04
11124;BME280;5616;42.692;23.312;2023-03-16T10:41:54;94784.63;;;5.77;74.79
11124;BME280;5616;42.692;23.312;2023-03-16T10:44:22;94798.91;;;5.64;76.32
11124;BME280;5616;42.692;23.312;2023-03-16T10:46:58;94788.97;;;5.69;76.39
11124;BME280;5616;42.692;23.312;2023-03-16T10:49:33;94783.06;;;5.76;75.63
11124;BME280;5616;42.692;23.312;2023-03-16T10:52:05;94790.56;;;5.78;74.67
11124;BME280;5616;42.692;23.312;2023-03-16T10:54:36;94787.50;;;5.74;74.57
11124;BME280;5616;42.692;23.312;2023-03-16T10:57:13;94796.97;;;5.57;75.75
11124;BME280;5616;42.692;23.312;2023-03-16T10:59:48;94790.06;;;5.58;73.83
11124;BME280;5616;42.692;23.312;2023-03-16T11:02:17;94793.41;;;5.50;75.95
11124;BME280;5616;42.692;23.312;2023-03-16T11:04:46;94797.41;;;5.61;72.65
11124;BME280;5616;42.692;23.312;2023-03-16T11:07:17;94801.13;;;5.67;73.02
11124;BME280;5616;42.692;23.312;2023-03-16T11:09:44;94789.75;;;5.69;73.15
11124;BME280;5616;42.692;23.312;2023-03-16T11:12:22;94791.06;;;5.73;74.88
11124;BME280;5616;42.692;23.312;2023-03-16T11:14:50;94798.41;;;5.68;73.73
11124;BME280;5616;42.692;23.312;2023-03-16T11:17:18;94798.13;;;5.79;72.26
11124;BME280;5616;42.692;23.312;2023-03-16T11:19:53;94797.66;;;5.92;71.33
11124;BME280;5616;42.692;23.312;2023-03-16T11:22:23;94797.94;;;5.73;72.17
11124;BME280;5616;42.692;23.312;2023-03-16T11:24:54;94794.56;;;5.80;71.54
11124;BME280;5616;42.692;23.312;2023-03-16T11:27:23;94797.34;;;5.87;72.42
11124;BME280;5616;42.692;23.312;2023-03-16T11:30:02;94794.56;;;5.72;73.74
11124;BME280;5616;42.692;23.312;2023-03-16T11:32:32;94797.81;;;5.90;73.44
11124;BME280;5616;42.692;23.312;2023-03-16T11:35:11;94801.03;;;6.08;72.06
11124;BME280;5616;42.692;23.312;2023-03-16T11:37:49;94787.25;;;5.93;71.90
11124;BME280;5616;42.692;23.312;2023-03-16T11:40:30;94804.56;;;5.99;73.28
11124;BME280;5616;42.692;23.312;2023-03-16T11:43:08;94792.25;;;6.03;72.62
11124;BME280;5616;42.692;23.312;2023-03-16T11:45:43;94802.81;;;6.16;70.40
11124;BME280;5616;42.692;23.312;2023-03-16T11:48:25;94790.63;;;6.10;70.25
11124;BME280;5616;42.692;23.312;2023-03-16T11:51:10;94801.03;;;5.92;71.41
11124;BME280;5616;42.692;23.312;2023-03-16T11:53:48;94803.59;;;5.92;70.68
11124;BME280;5616;42.692;23.312;2023-03-16T11:56:25;94801.00;;;5.84;71.57
11124;BME280;5616;42.692;23.312;2023-03-16T11:59:05;94799.75;;;5.88;71.25
11124;BME280;5616;42.692;23.312;2023-03-16T12:01:46;94813.47;;;5.71;73.16
11124;BME280;5616;42.692;23.312;2023-03-16T12:04:23;94815.53;;;5.68;70.75
11124;BME280;5616;42.692;23.312;2023-03-16T12:07:11;94822.25;;;5.61;72.27
11124;BME280;5616;42.692;23.312;2023-03-16T12:10:00;94818.88;;;5.60;74.07
11124;BME280;5616;42.692;23.312;2023-03-16T12:12:44;94820.34;;;5.63;71.96
11124;BME280;5616;42.692;23.312;2023-03-16T12:15:22;94820.13;;;5.40;72.65
11124;BME280;5616;42.692;23.312;2023-03-16T12:17:53;94814.84;;;5.49;72.70
11124;BME280;5616;42.692;23.312;2023-03-16T12:20:24;94826.69;;;5.50;72.53
11124;BME280;5616;42.692;23.312;2023-03-16T12:22:58;94826.38;;;5.53;72.25
11124;BME280;5616;42.692;23.312;2023-03-16T12:25:30;94822.88;;;5.54;72.22
11124;BME280;5616;42.692;23.312;2023-03-16T12:28:01;94834.22;;;5.52;73.23
11124;BME280;5616;42.692;23.312;2023-03-16T12:30:36;94830.56;;;5.54;73.87
11124;BME280;5616;42.692;23.312;2023-03-16T12:33:10;94839.34;;;5.52;73.09
11124;BME280;5616;42.692;23.312;2023-03-16T12:35:47;94836.63;;;5.53;73.40
11124;BME280;5616;42.692;23.312;2023-03-16T12:38:33;94832.31;;;5.54;73.61
11124;BME280;5616;42.692;23.312;2023-03-16T12:41:14;94840.78;;;5.54;73.08
11124;BME280;5616;42.692;23.312;2023-03-16T12:43:51;94838.88;;;5.56;73.91
11124;BME280;5616;42.692;23.312;2023-03-16T12:46:26;94849.25;;;5.47;72.83
11124;BME280;5616;42.692;23.312;2023-03-16T12:48:58;94851.59;;;5.32;74.71
11124;BME280;5616;42.692;23.312;2023-03-16T12:51:31;94849.19;;;5.31;74.68
11124;BME280;5616;42.692;23.312;2023-03-16T12:54:00;94852.03;;;5.20;75.35
11124;BME280;5616;42.692;23.312;2023-03-16T12:56:30;94854.25;;;5.15;76.23
11124;BME280;5616;42.692;23.312;2023-03-16T12:58:59;94855.81;;;5.08;77.55
11124;BME280;5616;42.692;23.312;2023-03-16T13:01:27;94866.25;;;4.88;79.61
11124;BME280;5616;42.692;23.312;2023-03-16T13:03:59;94865.16;;;4.91;79.67
11124;BME280;5616;42.692;23.312;2023-03-16T13:06:32;94870.16;;;5.01;79.90
11124;BME280;5616;42.692;23.312;2023-03-16T13:09:03;94861.88;;;5.07;79.67
11124;BME280;5616;42.692;23.312;2023-03-16T13:11:40;94870.81;;;5.03;81.15
11124;BME280;5616;42.692;23.312;2023-03-16T13:14:08;94866.16;;;4.98;81.38
11124;BME280;5616;42.692;23.312;2023-03-16T13:16:39;94873.09;;;5.06;82.18
11124;BME280;5616;42.692;23.312;2023-03-16T13:19:22;94864.69;;;5.21;82.46
11124;BME280;5616;42.692;23.312;2023-03-16T13:22:00;94870.66;;;5.04;83.07
11124;BME280;5616;42.692;23.312;2023-03-16T13:24:37;94873.28;;;5.12;83.83
11124;BME280;5616;42.692;23.312;2023-03-16T13:27:14;94870.59;;;5.22;82.86
11124;BME280;5616;42.692;23.312;2023-03-16T13:29:52;94879.06;;;5.22;83.06
11124;BME280;5616;42.692;23.312;2023-03-16T13:32:20;94883.72;;;5.19;83.07
11124;BME280;5616;42.692;23.312;2023-03-16T13:34:49;94875.31;;;5.09;84.97